createdAt,value
2023-09-27T00:00:10.640Z,7.43
2023-09-27T00:02:42.709Z,7.90
2023-09-27T00:05:12.970Z,7.10
2023-09-27T00:07:42.671Z,6.20
2023-09-27T00:10:11.268Z,7.83
2023-09-27T00:12:39.264Z,7.97
2023-09-27T00:15:09.219Z,8.07
2023-09-27T00:17:36.714Z,9.70
2023-09-27T00:20:05.110Z,8.63
2023-09-27T00:22:33.897Z,9.70
2023-09-27T00:25:01.207Z,8.87
2023-09-27T00:27:28.639Z,9.80
2023-09-27T00:29:56.420Z,8.53
2023-09-27T00:32:23.698Z,9.43
2023-09-27T00:34:51.107Z,7.93
2023-09-27T00:37:19.010Z,7.73
2023-09-27T00:39:46.409Z,7.87
2023-09-27T00:42:14.379Z,7.53
2023-09-27T00:44:42.105Z,8.77
2023-09-27T00:47:09.328Z,9.48
2023-09-27T00:49:37.044Z,8.80
2023-09-27T00:52:04.935Z,7.87
2023-09-27T00:54:34.261Z,7.27
2023-09-27T00:57:03.164Z,7.73
2023-09-27T00:59:31.508Z,8.07
2023-09-27T01:01:58.963Z,7.90
2023-09-27T01:04:27.139Z,8.63
2023-09-27T01:06:54.681Z,8.00
2023-09-27T01:09:22.033Z,7.55
2023-09-27T01:11:49.824Z,6.90
2023-09-27T01:14:17.106Z,7.07
2023-09-27T01:16:44.350Z,9.13
2023-09-27T01:19:11.830Z,7.88
2023-09-27T01:21:39.996Z,8.30
2023-09-27T01:24:07.843Z,9.67
2023-09-27T01:26:37.976Z,10.30
2023-09-27T01:29:05.922Z,11.03
2023-09-27T01:31:33.845Z,10.93
2023-09-27T01:34:01.053Z,10.23
2023-09-27T01:36:28.286Z,9.93
2023-09-27T01:38:55.810Z,9.55
2023-09-27T01:41:23.099Z,10.10
2023-09-27T01:43:50.845Z,11.57
2023-09-27T01:46:18.614Z,11.00
2023-09-27T01:48:45.883Z,11.85
2023-09-27T01:51:15.353Z,10.73
2023-09-27T01:53:42.912Z,10.60
2023-09-27T01:56:10.423Z,13.32
2023-09-27T01:58:38.051Z,14.05
2023-09-27T02:01:05.412Z,11.48
2023-09-27T02:03:33.258Z,11.35
2023-09-27T02:06:00.721Z,12.30
2023-09-27T02:08:28.713Z,13.60
2023-09-27T02:10:55.983Z,14.05
2023-09-27T02:13:23.510Z,17.15
2023-09-27T02:15:50.957Z,13.07
2023-09-27T02:18:18.448Z,16.40
2023-09-27T02:20:46.959Z,14.93
2023-09-27T02:23:14.444Z,14.82
2023-09-27T02:25:41.930Z,14.57
2023-09-27T02:28:09.486Z,17.73
2023-09-27T02:30:36.950Z,19.35
2023-09-27T02:33:04.643Z,14.38
2023-09-27T02:35:32.131Z,16.15
2023-09-27T02:37:59.775Z,20.10
2023-09-27T02:40:28.610Z,22.60
2023-09-27T02:42:55.816Z,20.35
2023-09-27T02:45:24.591Z,18.75
2023-09-27T02:47:51.881Z,17.00
2023-09-27T02:50:19.310Z,20.90
2023-09-27T02:52:46.500Z,17.30
2023-09-27T02:55:15.563Z,20.05
2023-09-27T02:57:43.990Z,17.73
2023-09-27T03:00:11.622Z,17.63
2023-09-27T03:02:39.272Z,16.83
2023-09-27T03:05:09.091Z,15.32
2023-09-27T03:07:36.801Z,15.60
2023-09-27T03:10:09.375Z,14.70
2023-09-27T03:12:36.802Z,14.55
2023-09-27T03:15:04.642Z,14.20
2023-09-27T03:17:32.113Z,12.13
2023-09-27T03:19:59.380Z,13.07
2023-09-27T03:22:26.791Z,13.52
2023-09-27T03:24:54.131Z,12.90
2023-09-27T03:27:21.398Z,12.55
2023-09-27T03:29:48.802Z,12.68
2023-09-27T03:32:16.172Z,12.82
2023-09-27T03:34:43.918Z,11.77
2023-09-27T03:37:11.313Z,12.13
2023-09-27T03:39:38.598Z,12.30
2023-09-27T03:42:05.904Z,12.35
2023-09-27T03:44:33.288Z,10.75
2023-09-27T03:47:00.930Z,11.23
2023-09-27T03:49:28.378Z,12.95
2023-09-27T03:51:55.759Z,12.35
2023-09-27T03:54:23.447Z,13.95
2023-09-27T03:56:50.863Z,13.13
2023-09-27T03:59:18.449Z,11.73
2023-09-27T04:01:47.299Z,11.73
2023-09-27T04:04:14.923Z,11.52
2023-09-27T04:06:42.451Z,11.50
2023-09-27T04:09:10.969Z,10.98
2023-09-27T04:11:38.738Z,19.23
2023-09-27T04:14:07.108Z,13.68
2023-09-27T04:16:34.835Z,14.35
2023-09-27T04:19:02.307Z,13.90
2023-09-27T04:21:30.306Z,13.93
2023-09-27T04:23:58.778Z,13.20
2023-09-27T04:26:26.630Z,13.20
2023-09-27T04:28:54.727Z,13.55
2023-09-27T04:31:22.599Z,15.02
2023-09-27T04:33:50.526Z,14.20
2023-09-27T04:36:18.815Z,12.18
2023-09-27T04:38:47.071Z,14.15
2023-09-27T04:41:18.292Z,13.73
2023-09-27T04:43:47.740Z,14.68
2023-09-27T04:46:21.682Z,13.00
2023-09-27T04:48:49.749Z,15.52
2023-09-27T04:51:18.016Z,15.68
2023-09-27T04:53:45.699Z,13.57
2023-09-27T04:56:14.526Z,12.30
2023-09-27T04:58:42.724Z,15.10
2023-09-27T05:01:12.636Z,15.27
2023-09-27T05:03:42.215Z,16.90
2023-09-27T05:06:10.664Z,15.38
2023-09-27T05:08:39.544Z,16.70
2023-09-27T05:11:08.823Z,16.17
2023-09-27T05:13:43.853Z,16.42
2023-09-27T05:16:12.790Z,20.40
2023-09-27T05:18:41.104Z,16.73
2023-09-27T05:21:10.571Z,16.80
2023-09-27T05:23:39.502Z,17.10
2023-09-27T05:26:09.384Z,14.57
2023-09-27T05:28:38.653Z,15.68
2023-09-27T05:31:07.304Z,16.48
2023-09-27T05:33:34.738Z,15.30
2023-09-27T05:36:03.134Z,14.13
2023-09-27T05:38:30.416Z,14.77
2023-09-27T05:40:57.577Z,14.93
2023-09-27T05:43:24.788Z,13.60
2023-09-27T05:45:52.615Z,12.98
2023-09-27T05:48:20.393Z,13.43
2023-09-27T05:50:51.387Z,12.73
2023-09-27T05:53:19.121Z,12.32
2023-09-27T05:55:47.730Z,12.25
2023-09-27T05:58:15.270Z,13.82
2023-09-27T06:00:48.080Z,13.35
2023-09-27T06:03:15.539Z,12.82
2023-09-27T06:05:43.094Z,12.82
2023-09-27T06:08:10.648Z,14.75
2023-09-27T06:10:38.004Z,13.50
2023-09-27T06:13:06.552Z,13.90
2023-09-27T06:15:35.464Z,13.13
2023-09-27T06:18:04.492Z,13.55
2023-09-27T06:20:32.268Z,13.45
2023-09-27T06:23:04.660Z,14.25
2023-09-27T06:25:35.958Z,14.18
2023-09-27T06:28:04.052Z,13.77
2023-09-27T06:30:31.711Z,14.90
2023-09-27T06:32:59.300Z,14.85
2023-09-27T06:35:26.774Z,15.30
2023-09-27T06:37:54.293Z,16.90
2023-09-27T06:40:23.596Z,17.33
2023-09-27T06:42:50.919Z,16.40
2023-09-27T06:45:18.495Z,17.02
2023-09-27T06:47:47.481Z,16.55
2023-09-27T06:50:16.852Z,15.13
2023-09-27T06:52:46.757Z,15.98
2023-09-27T06:55:18.094Z,14.75
2023-09-27T06:57:47.574Z,13.77
2023-09-27T07:00:25.646Z,13.20
2023-09-27T07:02:53.859Z,13.50
2023-09-27T07:05:22.952Z,14.55
2023-09-27T07:07:51.678Z,13.45
2023-09-27T07:10:19.490Z,12.68
2023-09-27T07:12:47.681Z,13.77
2023-09-27T07:15:15.664Z,12.98
2023-09-27T07:17:46.032Z,12.48
2023-09-27T07:20:36.026Z,12.43
2023-09-27T07:23:08.559Z,12.55
2023-09-27T07:25:36.936Z,11.73
2023-09-27T07:28:07.750Z,12.52
2023-09-27T07:30:35.226Z,11.45
2023-09-27T07:33:07.663Z,11.77
2023-09-27T07:35:36.676Z,10.95
2023-09-27T07:38:04.091Z,10.25
2023-09-27T07:40:31.655Z,9.52
2023-09-27T07:43:00.015Z,8.73
2023-09-27T07:45:31.551Z,8.57
2023-09-27T07:47:59.245Z,8.07
2023-09-27T07:50:33.187Z,7.10
2023-09-27T07:53:04.576Z,6.32
2023-09-27T07:55:35.433Z,5.88
2023-09-27T07:58:05.262Z,6.18
2023-09-27T08:00:34.393Z,4.32
2023-09-27T08:03:04.866Z,4.47
2023-09-27T08:05:32.824Z,4.65
2023-09-27T08:08:01.069Z,4.28
2023-09-27T08:10:30.608Z,4.15
2023-09-27T08:12:57.808Z,4.28
2023-09-27T08:15:25.074Z,4.35
2023-09-27T08:17:52.514Z,4.05
2023-09-27T08:20:20.397Z,3.70
2023-09-27T08:22:47.705Z,3.83
2023-09-27T08:25:16.653Z,4.03
2023-09-27T08:27:45.298Z,3.80
2023-09-27T08:30:13.661Z,3.63
2023-09-27T08:32:42.923Z,3.65
2023-09-27T08:35:11.881Z,3.42
2023-09-27T08:37:39.654Z,3.17
2023-09-27T08:40:14.753Z,3.47
2023-09-27T08:42:44.788Z,2.90
2023-09-27T08:45:16.190Z,3.00
2023-09-27T08:47:46.365Z,2.40
2023-09-27T08:50:15.603Z,2.50
2023-09-27T08:52:52.992Z,2.60
2023-09-27T08:55:21.314Z,2.80
2023-09-27T08:57:53.108Z,2.63
2023-09-27T09:00:23.819Z,2.58
2023-09-27T09:02:59.227Z,2.45
2023-09-27T09:05:30.024Z,2.35
2023-09-27T09:08:03.046Z,2.17
2023-09-27T09:10:30.662Z,2.35
2023-09-27T09:13:01.136Z,2.45
2023-09-27T09:15:46.193Z,2.35
2023-09-27T09:18:27.012Z,2.50
2023-09-27T09:20:56.309Z,2.78
2023-09-27T09:23:31.484Z,2.70
2023-09-27T09:26:00.431Z,3.55
2023-09-27T09:28:28.270Z,4.20
2023-09-27T09:30:55.509Z,3.55
2023-09-27T09:33:26.530Z,4.07
2023-09-27T09:35:54.297Z,3.70
2023-09-27T09:38:32.365Z,4.05
2023-09-27T09:41:01.747Z,3.58
2023-09-27T09:43:39.348Z,4.10
2023-09-27T09:46:08.331Z,3.85
2023-09-27T09:48:36.530Z,4.72
2023-09-27T09:51:07.758Z,4.47
2023-09-27T09:53:40.796Z,4.43
2023-09-27T09:58:55.973Z,4.18
2023-09-27T10:01:30.275Z,4.53
2023-09-27T10:03:59.804Z,4.88
2023-09-27T10:06:45.298Z,4.80
2023-09-27T10:09:17.249Z,5.05
2023-09-27T10:11:47.753Z,5.22
2023-09-27T10:14:19.569Z,4.90
2023-09-27T10:16:49.520Z,4.90
2023-09-27T10:19:30.722Z,5.28
2023-09-27T10:22:06.509Z,5.20
2023-09-27T10:24:36.452Z,5.20
2023-09-27T10:27:03.877Z,4.70
2023-09-27T10:29:31.178Z,4.95
2023-09-27T10:31:58.489Z,4.90
2023-09-27T10:34:34.870Z,4.63
2023-09-27T10:37:17.257Z,4.90
2023-09-27T10:40:19.388Z,4.85
2023-09-27T10:42:46.838Z,4.97
2023-09-27T10:45:14.505Z,4.85
2023-09-27T10:47:42.755Z,4.75
2023-09-27T10:50:11.999Z,4.78
2023-09-27T10:52:41.059Z,4.80
2023-09-27T10:55:12.858Z,4.80
2023-09-27T10:57:43.270Z,4.20
2023-09-27T11:00:14.105Z,4.95
2023-09-27T11:02:43.371Z,4.10
2023-09-27T11:05:11.341Z,4.18
2023-09-27T11:07:52.564Z,4.18
2023-09-27T11:10:32.026Z,3.78
2023-09-27T11:13:14.154Z,3.60
2023-09-27T11:15:43.382Z,4.00
2023-09-27T11:18:11.849Z,4.03
2023-09-27T11:20:44.021Z,4.13
2023-09-27T11:23:11.606Z,3.75
2023-09-27T11:25:39.418Z,4.20
2023-09-27T11:28:07.048Z,3.97
2023-09-27T11:30:36.686Z,3.97
2023-09-27T11:33:07.899Z,3.72
2023-09-27T11:35:36.002Z,3.88
2023-09-27T11:38:10.999Z,4.07
2023-09-27T11:40:43.134Z,4.15
2023-09-27T11:43:11.547Z,3.88
2023-09-27T11:45:45.463Z,4.15
2023-09-27T11:48:13.437Z,3.92
2023-09-27T11:50:41.002Z,3.75
2023-09-27T11:53:08.773Z,4.07
2023-09-27T11:55:37.139Z,4.38
2023-09-27T11:58:04.873Z,3.95
2023-09-27T12:00:33.471Z,4.20
2023-09-27T12:03:01.108Z,4.00
2023-09-27T12:05:29.020Z,4.10
2023-09-27T12:07:56.680Z,3.85
2023-09-27T12:10:24.417Z,4.00
2023-09-27T12:12:51.661Z,4.43
2023-09-27T12:15:18.863Z,3.90
2023-09-27T12:17:46.466Z,4.40
2023-09-27T12:20:31.785Z,4.47
2023-09-27T12:23:02.333Z,4.13
2023-09-27T12:25:29.574Z,4.07
2023-09-27T12:27:56.701Z,4.18
2023-09-27T12:30:24.556Z,4.03
2023-09-27T12:32:52.731Z,4.38
2023-09-27T12:35:21.613Z,3.80
2023-09-27T12:37:49.942Z,3.78
2023-09-27T12:40:17.780Z,4.38
2023-09-27T12:42:45.454Z,4.40
2023-09-27T12:45:12.932Z,5.10
2023-09-27T12:47:40.614Z,4.95
2023-09-27T12:50:08.321Z,4.25
2023-09-27T12:52:35.965Z,3.90
2023-09-27T12:55:03.519Z,4.55
2023-09-27T12:57:31.021Z,4.75
2023-09-27T12:59:58.628Z,4.32
2023-09-27T13:02:26.677Z,4.88
2023-09-27T13:04:54.243Z,4.75
2023-09-27T13:07:21.754Z,5.05
2023-09-27T13:09:50.962Z,5.20
2023-09-27T13:12:19.015Z,4.93
2023-09-27T13:14:46.685Z,5.53
2023-09-27T13:17:14.032Z,5.20
2023-09-27T13:19:41.268Z,4.78
2023-09-27T13:22:08.550Z,5.13
2023-09-27T13:24:36.043Z,5.53
2023-09-27T13:27:03.439Z,5.05
2023-09-27T13:29:31.661Z,5.30
2023-09-27T13:31:59.230Z,5.07
2023-09-27T13:34:26.413Z,4.90
2023-09-27T13:36:53.784Z,5.40
2023-09-27T13:39:27.244Z,5.07
2023-09-27T13:41:54.584Z,5.20
2023-09-27T13:44:22.460Z,4.78
2023-09-27T13:46:50.609Z,5.72
2023-09-27T13:49:18.599Z,5.03
2023-09-27T13:51:46.053Z,5.50
2023-09-27T13:54:14.390Z,5.13
2023-09-27T13:56:42.025Z,5.85
2023-09-27T13:59:09.984Z,5.50
2023-09-27T14:01:37.778Z,5.75
2023-09-27T14:04:05.571Z,5.88
2023-09-27T14:06:32.776Z,4.97
2023-09-27T14:09:00.420Z,5.20
2023-09-27T14:11:28.155Z,5.82
2023-09-27T14:13:55.953Z,5.47
2023-09-27T14:16:23.629Z,5.38
2023-09-27T14:18:51.568Z,5.50
2023-09-27T14:21:19.130Z,5.68
2023-09-27T14:23:48.063Z,5.05
2023-09-27T14:26:16.270Z,5.60
2023-09-27T14:28:47.074Z,5.78
2023-09-27T14:31:18.351Z,5.03
2023-09-27T14:33:46.213Z,5.35
2023-09-27T14:36:13.706Z,5.13
2023-09-27T14:38:41.365Z,5.28
2023-09-27T14:41:12.527Z,5.30
2023-09-27T14:43:40.428Z,5.30
2023-09-27T14:46:12.587Z,5.00
2023-09-27T14:48:40.906Z,5.18
2023-09-27T14:51:13.496Z,5.47
2023-09-27T14:53:42.526Z,5.28
2023-09-27T14:56:11.030Z,5.30
2023-09-27T14:58:38.408Z,5.28
2023-09-27T15:01:08.067Z,5.20
2023-09-27T15:03:35.635Z,5.20
2023-09-27T15:06:04.089Z,4.88
2023-09-27T15:08:32.027Z,5.47
2023-09-27T15:10:59.495Z,4.95
2023-09-27T15:13:31.570Z,5.00
2023-09-27T15:15:59.635Z,5.10
2023-09-27T15:18:27.115Z,5.30
2023-09-27T15:20:55.002Z,5.35
2023-09-27T15:23:22.693Z,4.63
2023-09-27T15:25:50.365Z,5.35
2023-09-27T15:28:17.928Z,5.25
2023-09-27T15:30:45.766Z,5.80
2023-09-27T15:33:14.263Z,5.60
2023-09-27T15:35:49.853Z,5.30
2023-09-27T15:38:19.037Z,5.95
2023-09-27T15:40:50.222Z,5.40
2023-09-27T15:43:21.343Z,5.60
2023-09-27T15:46:04.919Z,5.15
2023-09-27T15:48:36.058Z,5.53
2023-09-27T15:51:08.471Z,5.30
2023-09-27T15:53:37.234Z,6.18
2023-09-27T15:56:06.330Z,5.32
2023-09-27T15:58:37.252Z,5.70
2023-09-27T16:01:06.793Z,5.75
2023-09-27T16:03:36.373Z,5.93
2023-09-27T16:06:05.485Z,5.00
2023-09-27T16:08:33.039Z,5.50
2023-09-27T16:11:00.791Z,5.72
2023-09-27T16:13:29.382Z,5.85
2023-09-27T16:15:56.997Z,5.30
2023-09-27T16:18:24.434Z,6.07
2023-09-27T16:20:51.788Z,5.63
2023-09-27T16:23:19.637Z,5.63
2023-09-27T16:25:49.096Z,5.55
2023-09-27T16:28:17.685Z,5.95
2023-09-27T16:30:46.009Z,5.70
2023-09-27T16:33:13.435Z,5.63
2023-09-27T16:35:41.607Z,6.30
2023-09-27T16:38:10.990Z,5.68
2023-09-27T16:40:40.085Z,5.82
2023-09-27T16:43:08.232Z,5.10
2023-09-27T16:45:38.189Z,5.70
2023-09-27T16:48:06.376Z,6.43
2023-09-27T16:50:33.778Z,6.00
2023-09-27T16:53:01.066Z,6.00
2023-09-27T16:55:28.729Z,6.00
2023-09-27T16:57:56.957Z,6.53
2023-09-27T17:00:24.624Z,6.70
2023-09-27T17:02:53.286Z,6.38
2023-09-27T17:05:20.713Z,6.45
2023-09-27T17:07:48.167Z,6.32
2023-09-27T17:10:15.549Z,6.78
2023-09-27T17:12:43.098Z,6.40
2023-09-27T17:15:12.712Z,6.13
2023-09-27T17:17:41.688Z,6.20
2023-09-27T17:20:09.917Z,6.32
2023-09-27T17:22:37.897Z,6.30
2023-09-27T17:25:05.993Z,6.57
2023-09-27T17:27:33.712Z,6.40
2023-09-27T17:30:01.123Z,6.60
2023-09-27T17:32:29.009Z,6.35
2023-09-27T17:34:57.271Z,6.93
2023-09-27T17:37:24.577Z,7.40
2023-09-27T17:39:52.062Z,7.30
2023-09-27T17:42:19.482Z,7.07
2023-09-27T17:44:49.095Z,7.00
2023-09-27T17:47:16.690Z,6.93
2023-09-27T17:49:44.794Z,6.70
2023-09-27T17:52:12.368Z,6.95
2023-09-27T17:54:40.129Z,7.10
2023-09-27T17:57:07.419Z,6.50
2023-09-27T17:59:35.344Z,7.47
2023-09-27T18:02:02.624Z,6.85
2023-09-27T18:04:32.227Z,7.00
2023-09-27T18:06:59.781Z,6.80
2023-09-27T18:09:27.512Z,6.50
2023-09-27T18:11:54.941Z,6.38
2023-09-27T18:14:24.588Z,6.57
2023-09-27T18:16:52.395Z,6.68
2023-09-27T18:19:21.817Z,6.25
2023-09-27T18:21:51.027Z,6.20
2023-09-27T18:24:27.189Z,5.43
2023-09-27T18:26:57.518Z,6.28
2023-09-27T18:29:28.045Z,6.25
2023-09-27T18:31:58.589Z,6.75
2023-09-27T18:34:26.850Z,6.03
2023-09-27T18:36:54.606Z,6.63
2023-09-27T18:39:23.980Z,6.97
2023-09-27T18:41:51.886Z,7.07
2023-09-27T18:44:22.662Z,6.72
2023-09-27T18:46:54.077Z,6.25
2023-09-27T18:49:21.514Z,6.05
2023-09-27T18:51:49.806Z,6.47
2023-09-27T18:54:17.140Z,5.65
2023-09-27T18:56:44.747Z,6.18
2023-09-27T18:59:12.194Z,6.35
2023-09-27T19:01:39.727Z,6.60
2023-09-27T19:04:07.260Z,6.63
2023-09-27T19:06:35.741Z,6.63
2023-09-27T19:09:05.122Z,6.80
2023-09-27T19:11:33.996Z,6.40
2023-09-27T19:14:02.718Z,6.20
2023-09-27T19:16:34.910Z,6.38
2023-09-27T19:19:02.360Z,6.95
2023-09-27T19:21:31.073Z,6.88
2023-09-27T19:23:58.608Z,7.25
2023-09-27T19:26:25.866Z,7.20
2023-09-27T19:28:54.715Z,6.95
2023-09-27T19:31:22.106Z,6.97
2023-09-27T19:33:51.176Z,7.18
2023-09-27T19:36:21.718Z,6.85
2023-09-27T19:38:49.825Z,7.65
2023-09-27T19:41:17.854Z,7.35
2023-09-27T19:43:45.600Z,7.35
2023-09-27T19:46:13.331Z,8.38
2023-09-27T19:48:45.153Z,7.75
2023-09-27T19:51:27.523Z,10.15
2023-09-27T19:53:58.430Z,9.52
2023-09-27T19:56:25.871Z,10.18
2023-09-27T19:58:53.364Z,11.07
2023-09-27T20:01:33.134Z,10.68
2023-09-27T20:04:00.652Z,10.85
2023-09-27T20:06:29.314Z,9.60
2023-09-27T20:08:57.938Z,10.82
2023-09-27T20:11:27.496Z,9.82
2023-09-27T20:13:55.041Z,10.65
2023-09-27T20:16:22.768Z,12.45
2023-09-27T20:18:51.110Z,10.68
2023-09-27T20:21:18.741Z,11.20
2023-09-27T20:23:46.073Z,11.82
2023-09-27T20:26:13.359Z,11.13
2023-09-27T20:28:41.565Z,12.30
2023-09-27T20:31:09.110Z,11.80
2023-09-27T20:33:37.056Z,12.55
2023-09-27T20:36:04.577Z,11.73
2023-09-27T20:38:33.684Z,12.90
2023-09-27T20:41:00.854Z,12.70
2023-09-27T20:43:28.205Z,12.65
2023-09-27T20:45:56.439Z,14.20
2023-09-27T20:48:24.597Z,14.80
2023-09-27T20:50:51.859Z,14.27
2023-09-27T20:53:19.467Z,13.63
2023-09-27T20:55:46.740Z,12.82
2023-09-27T20:58:14.147Z,14.80
2023-09-27T21:00:41.876Z,14.68
2023-09-27T21:03:09.238Z,15.05
2023-09-27T21:05:36.476Z,14.30
2023-09-27T21:08:04.071Z,15.70
2023-09-27T21:10:31.651Z,14.45
2023-09-27T21:12:59.263Z,14.32
2023-09-27T21:15:26.475Z,13.23
2023-09-27T21:17:55.537Z,13.15
2023-09-27T21:20:22.985Z,12.90
2023-09-27T21:22:50.168Z,12.88
2023-09-27T21:25:21.017Z,12.80
2023-09-27T21:27:48.750Z,12.60
2023-09-27T21:30:16.901Z,13.55
2023-09-27T21:32:44.441Z,12.40
2023-09-27T21:35:12.047Z,12.75
2023-09-27T21:37:40.271Z,13.32
2023-09-27T21:40:08.518Z,12.70
2023-09-27T21:42:36.011Z,13.63
2023-09-27T21:45:03.419Z,12.63
2023-09-27T21:47:30.848Z,11.90
2023-09-27T21:49:58.110Z,11.40
2023-09-27T21:52:27.969Z,10.55
2023-09-27T21:54:55.961Z,9.77
2023-09-27T21:57:23.524Z,10.32
2023-09-27T21:59:50.880Z,9.88
2023-09-27T22:02:18.181Z,10.13
2023-09-27T22:04:45.589Z,10.02
2023-09-27T22:07:13.226Z,10.63
2023-09-27T22:09:42.175Z,10.80
2023-09-27T22:12:09.629Z,9.45
2023-09-27T22:14:36.844Z,10.40
2023-09-27T22:17:09.559Z,9.05
2023-09-27T22:19:37.769Z,10.20
2023-09-27T22:22:04.964Z,9.50
2023-09-27T22:24:32.312Z,10.63
2023-09-27T22:27:02.237Z,10.65
2023-09-27T22:29:33.465Z,10.93
2023-09-27T22:32:01.109Z,11.73
2023-09-27T22:34:38.578Z,11.27
2023-09-27T22:37:09.483Z,11.15
2023-09-27T22:39:41.471Z,11.00
2023-09-27T22:42:14.303Z,10.55
2023-09-27T22:44:43.533Z,12.15
2023-09-27T22:47:10.976Z,10.13
2023-09-27T22:49:38.492Z,9.05
2023-09-27T22:52:10.573Z,10.15
2023-09-27T22:54:39.675Z,8.70
2023-09-27T22:57:07.543Z,9.20
2023-09-27T22:59:39.495Z,8.68
2023-09-27T23:02:11.055Z,8.70
2023-09-27T23:04:38.805Z,8.38
2023-09-27T23:07:18.075Z,8.52
2023-09-27T23:09:48.612Z,9.48
2023-09-27T23:12:20.274Z,8.85
2023-09-27T23:15:07.271Z,9.93
2023-09-27T23:17:56.422Z,10.05
2023-09-27T23:20:30.177Z,9.52
2023-09-27T23:22:59.305Z,8.05
2023-09-27T23:25:45.285Z,7.57
2023-09-27T23:28:28.593Z,8.80
2023-09-27T23:31:06.425Z,7.78
2023-09-27T23:33:45.453Z,8.07
2023-09-27T23:36:27.950Z,8.82
2023-09-27T23:38:59.790Z,8.85
2023-09-27T23:41:31.909Z,8.75
2023-09-27T23:44:06.406Z,8.98
2023-09-27T23:46:38.817Z,8.95
2023-09-27T23:49:07.892Z,8.73
2023-09-27T23:51:35.545Z,10.18
2023-09-27T23:54:04.187Z,8.98
2023-09-27T23:56:31.923Z,9.93
2023-09-27T23:59:09.318Z,8.93
